Time;durP1;ratioP1;P1;durP2;ratioP2;P2;SDS_P1;SDS_P2;PMS_P1;PMS_P2;Temp;Humidity;BMP_temperature;BMP_pressure;BME280_temperature;BME280_humidity;BME280_pressure;Samples;Min_cycle;Max_cycle;Signal;HPM_P1;HPM_P2
2021/07/07 00:00:02;;;;;;;6.80;3.17;;;;;;;17.48;100.00;98544.78;5007352;28;103089;-74
2021/07/07 00:02:31;;;;;;;3.75;2.33;;;;;;;17.42;100.00;98542.75;5007118;28;103814;-74
2021/07/07 00:04:59;;;;;;;2.67;2.45;;;;;;;17.33;100.00;98541.00;4996956;28;104632;-74
2021/07/07 00:07:28;;;;;;;2.97;2.40;;;;;;;17.34;100.00;98532.03;4987677;28;103096;-74
2021/07/07 00:09:56;;;;;;;3.22;2.10;;;;;;;17.34;100.00;98535.53;4991471;28;103067;-75
2021/07/07 00:12:24;;;;;;;1.88;1.75;;;;;;;17.47;100.00;98532.41;5010651;28;103810;-74
2021/07/07 00:14:52;;;;;;;2.40;2.20;;;;;;;17.56;100.00;98541.34;5015444;28;103688;-74
2021/07/07 00:17:21;;;;;;;2.78;2.58;;;;;;;17.45;100.00;98553.13;5008383;28;103213;-75
2021/07/07 00:19:49;;;;;;;2.08;1.90;;;;;;;17.55;100.00;98545.84;5008445;28;102675;-75
2021/07/07 00:22:18;;;;;;;2.90;1.73;;;;;;;17.62;100.00;98546.91;5007924;28;104185;-74
2021/07/07 00:24:46;;;;;;;1.80;1.70;;;;;;;17.71;100.00;98540.59;5007172;28;104461;-75
2021/07/07 00:27:14;;;;;;;1.70;1.33;;;;;;;17.73;100.00;98548.47;5007814;28;103089;-75
2021/07/07 00:29:43;;;;;;;1.75;1.42;;;;;;;17.80;100.00;98547.66;5007670;28;103043;-74
2021/07/07 00:32:14;;;;;;;1.63;1.52;;;;;;;17.83;100.00;98550.00;5007523;28;105048;-74
2021/07/07 00:34:44;;;;;;;1.58;1.48;;;;;;;17.86;100.00;98551.53;5007999;28;104422;-74
2021/07/07 00:37:12;;;;;;;2.17;1.42;;;;;;;17.84;100.00;98550.84;5008398;28;103079;-75
2021/07/07 00:39:41;;;;;;;5.40;3.03;;;;;;;17.61;100.00;98550.56;5007633;28;102814;-74
2021/07/07 00:42:09;;;;;;;2.67;2.38;;;;;;;17.51;100.00;98549.81;5007154;28;105603;-74
2021/07/07 00:44:38;;;;;;;2.13;1.92;;;;;;;17.66;100.00;98553.59;5006503;28;105056;-74
2021/07/07 00:47:07;;;;;;;3.50;2.20;;;;;;;17.71;100.00;98548.59;5008000;28;103116;-74
2021/07/07 00:49:35;;;;;;;2.30;2.10;;;;;;;17.71;100.00;98561.16;5007548;28;102886;-75
2021/07/07 00:52:07;;;;;;;2.35;2.13;;;;;;;17.69;100.00;98553.28;5006500;28;105401;-75
2021/07/07 00:54:36;;;;;;;2.97;1.80;;;;;;;17.75;100.00;98555.31;5006839;28;103125;-75
2021/07/07 00:57:05;;;;;;;1.85;1.67;;;;;;;17.79;100.00;98550.50;5007852;28;104269;-75
2021/07/07 00:59:33;;;;;;;3.58;2.20;;;;;;;17.82;100.00;98542.97;5007342;28;102912;-74
2021/07/07 01:02:03;;;;;;;2.00;1.85;;;;;;;17.85;100.00;98541.84;4979511;28;105154;-75
2021/07/07 01:04:31;;;;;;;2.17;1.83;;;;;;;17.88;100.00;98547.69;5000981;28;104280;-74
2021/07/07 01:06:59;;;;;;;2.00;1.80;;;;;;;17.84;100.00;98546.34;4986051;28;103480;-74
2021/07/07 01:09:29;;;;;;;5.18;2.80;;;;;;;17.71;100.00;98537.91;5005591;28;103001;-75
2021/07/07 01:11:57;;;;;;;4.45;3.45;;;;;;;17.35;100.00;98533.66;4997788;28;103904;-75
2021/07/07 01:14:25;;;;;;;4.20;2.90;;;;;;;17.39;100.00;98529.72;4995472;28;103704;-75
2021/07/07 01:16:53;;;;;;;4.20;3.37;;;;;;;17.39;100.00;98527.03;4986847;28;103422;-74
2021/07/07 01:19:22;;;;;;;5.35;3.13;;;;;;;17.43;100.00;98528.41;5005543;28;103084;-75
2021/07/07 01:21:52;;;;;;;4.00;3.08;;;;;;;17.70;100.00;98533.59;5005483;28;104338;-74
2021/07/07 01:24:21;;;;;;;2.22;2.03;;;;;;;18.07;100.00;98540.44;4987501;28;103603;-75
2021/07/07 01:26:49;;;;;;;3.05;2.20;;;;;;;18.26;100.00;98542.81;5005121;28;103017;-74
2021/07/07 01:29:17;;;;;;;2.08;1.88;;;;;;;18.36;99.82;98543.50;5005140;28;104554;-75
2021/07/07 01:31:46;;;;;;;1.95;1.63;;;;;;;18.59;98.36;98555.31;5004921;28;103872;-74
2021/07/07 01:34:14;;;;;;;2.40;2.20;;;;;;;18.63;97.07;98555.81;5004831;28;104145;-75
2021/07/07 01:36:42;;;;;;;4.13;2.43;;;;;;;18.30;98.61;98542.31;5005974;28;103085;-74
2021/07/07 01:39:12;;;;;;;3.60;2.97;;;;;;;17.95;100.00;98538.06;5007905;28;102884;-74
2021/07/07 01:41:40;;;;;;;6.40;4.03;;;;;;;17.65;100.00;98525.22;5014149;28;103985;-75
2021/07/07 01:44:09;;;;;;;3.88;3.28;;;;;;;17.95;100.00;98514.00;5010984;28;105323;-74
2021/07/07 01:46:37;;;;;;;3.13;2.58;;;;;;;18.24;100.00;98510.91;5005656;28;102635;-75
2021/07/07 01:49:05;;;;;;;3.50;2.42;;;;;;;18.28;99.44;98522.09;5005540;28;102677;-75
2021/07/07 01:51:35;;;;;;;3.22;2.70;;;;;;;18.07;99.50;98535.09;5005375;28;103479;-76
2021/07/07 01:54:03;;;;;;;4.32;2.88;;;;;;;17.92;100.00;98548.22;5005207;28;103682;-75
2021/07/07 01:56:33;;;;;;;2.80;2.50;;;;;;;18.17;99.90;98557.16;5005397;28;102627;-74
2021/07/07 01:59:01;;;;;;;3.80;2.40;;;;;;;18.47;97.96;98562.75;5005797;28;102922;-74
2021/07/07 02:01:29;;;;;;;5.57;3.10;;;;;;;18.26;98.38;98566.88;5000101;28;104679;-75
2021/07/07 02:03:57;;;;;;;3.40;2.50;;;;;;;18.19;98.91;98573.91;5000894;28;103960;-75
2021/07/07 02:06:25;;;;;;;4.68;3.40;;;;;;;17.83;100.00;98566.03;4985397;28;102938;-75
2021/07/07 02:08:53;;;;;;;3.72;2.67;;;;;;;17.88;100.00;98558.38;5007055;28;102722;-75
2021/07/07 02:11:21;;;;;;;3.25;2.17;;;;;;;18.29;100.00;98558.53;5009983;28;103344;-76
2021/07/07 02:13:50;;;;;;;7.03;3.60;;;;;;;17.72;100.00;98547.63;5005509;28;103855;-75
2021/07/07 02:16:18;;;;;;;7.93;4.53;;;;;;;17.18;100.00;98538.06;5008345;28;103064;-74
2021/07/07 02:18:47;;;;;;;5.63;4.15;;;;;;;17.26;100.00;98550.66;5008836;28;102953;-74
2021/07/07 02:21:14;;;;;;;5.20;3.25;;;;;;;17.39;100.00;98548.41;4995419;28;105194;-74
2021/07/07 02:23:43;;;;;;;4.40;3.00;;;;;;;17.62;100.00;98544.25;5008708;28;104205;-75
2021/07/07 02:26:11;;;;;;;5.57;3.60;;;;;;;17.69;100.00;98542.59;5008723;28;102740;-75
2021/07/07 02:28:39;;;;;;;5.72;3.20;;;;;;;17.77;100.00;98555.16;4990918;28;102808;-75
2021/07/07 02:31:08;;;;;;;3.80;3.08;;;;;;;18.01;100.00;98551.75;5007373;28;104257;-75
2021/07/07 02:33:36;;;;;;;2.67;2.30;;;;;;;18.33;100.00;98550.03;4999446;28;104598;-74
2021/07/07 02:36:08;;;;;;;2.90;1.98;;;;;;;18.55;99.80;98562.00;5006669;28;103103;-74
2021/07/07 02:38:36;;;;;;;2.47;2.25;;;;;;;18.55;98.62;98562.00;5008633;28;103454;-74
2021/07/07 02:41:06;;;;;;;2.13;2.00;;;;;;;18.64;97.68;98560.19;5007140;28;104851;-75
2021/07/07 02:43:34;;;;;;;3.10;2.30;;;;;;;18.63;96.84;98553.97;5020469;28;105590;-75
2021/07/07 02:46:03;;;;;;;5.97;3.40;;;;;;;18.44;96.77;98559.59;5008688;28;103182;-75
2021/07/07 02:48:32;;;;;;;3.30;2.65;;;;;;;18.29;98.51;98559.38;4990737;28;102897;-75
2021/07/07 02:51:00;;;;;;;3.60;2.73;;;;;;;18.42;97.84;98550.88;5007833;28;104067;-75
2021/07/07 02:53:28;;;;;;;3.33;3.03;;;;;;;18.23;98.31;98556.53;5007717;28;103716;-75
2021/07/07 02:55:56;;;;;;;2.60;2.40;;;;;;;18.35;98.91;98560.56;5007792;28;103021;-75
2021/07/07 02:58:24;;;;;;;3.00;2.60;;;;;;;18.54;97.80;98565.66;5007847;28;103122;-75
2021/07/07 03:00:52;;;;;;;3.20;2.57;;;;;;;18.64;96.25;98571.69;5007634;28;105173;-75
2021/07/07 03:03:22;;;;;;;2.83;2.30;;;;;;;18.53;98.35;98572.84;5014620;28;103871;-74
2021/07/07 03:05:54;;;;;;;2.50;2.30;;;;;;;18.66;97.51;98575.06;5018841;28;102939;-74
2021/07/07 03:08:23;;;;;;;2.43;2.23;;;;;;;18.60;96.28;98581.06;5007081;28;103242;-74
2021/07/07 03:10:51;;;;;;;5.13;3.17;;;;;;;18.06;99.85;98576.16;4987908;28;103929;-74
2021/07/07 03:13:21;;;;;;;2.25;2.05;;;;;;;18.27;100.00;98573.94;5010225;28;103664;-74
2021/07/07 03:15:50;;;;;;;2.45;2.25;;;;;;;18.57;98.66;98564.50;4989175;28;103072;-73
2021/07/07 03:18:18;;;;;;;1.58;1.48;;;;;;;18.78;97.62;98573.72;5007272;28;102842;-74
2021/07/07 03:20:49;;;;;;;2.50;2.30;;;;;;;18.92;95.75;98559.69;5007842;28;105079;-72
2021/07/07 03:23:19;;;;;;;2.58;2.38;;;;;;;18.80;95.52;98555.69;5006551;28;104377;-73
2021/07/07 03:25:48;;;;;;;3.17;2.85;;;;;;;18.44;96.36;98533.66;5006166;28;102963;-72
2021/07/07 03:28:16;;;;;;;3.20;2.40;;;;;;;18.23;97.33;98541.31;5007317;28;103140;-73
2021/07/07 03:30:45;;;;;;;4.18;2.78;;;;;;;17.35;100.00;98568.38;5006194;28;105639;-73
2021/07/07 03:33:14;;;;;;;2.15;1.92;;;;;;;17.95;100.00;98586.16;5004166;28;103644;-75
2021/07/07 03:35:42;;;;;;;2.65;2.00;;;;;;;18.32;99.32;98587.63;5003537;28;102879;-77
2021/07/07 03:38:10;;;;;;;2.30;1.80;;;;;;;18.55;97.64;98588.75;5005045;28;103395;-76
2021/07/07 03:40:39;;;;;;;3.83;2.58;;;;;;;18.51;96.96;98606.13;5009479;28;103141;-80
2021/07/07 03:43:08;;;;;;;2.47;2.10;;;;;;;18.64;95.47;98611.81;5020468;28;103973;-79
2021/07/07 03:45:36;;;;;;;3.03;2.30;;;;;;;18.51;93.65;98614.13;4971591;28;102680;-83
2021/07/07 03:48:07;;;;;;;2.45;2.25;;;;;;;18.14;97.70;98625.16;5004271;28;103292;-75
2021/07/07 03:50:38;;;;;;;2.40;2.00;;;;;;;17.66;98.89;98623.06;5003747;28;111894;-74
2021/07/07 03:53:07;;;;;;;2.60;1.77;;;;;;;17.70;99.08;98612.91;5003598;28;104931;-78
2021/07/07 03:55:35;;;;;;;1.23;1.13;;;;;;;18.11;98.31;98592.56;4992069;28;103426;-74
2021/07/07 03:58:05;;;;;;;1.58;1.48;;;;;;;18.34;96.73;98590.97;5003010;28;102888;-74
2021/07/07 04:00:34;;;;;;;1.45;1.10;;;;;;;18.54;94.88;98584.38;5003209;28;103858;-74
2021/07/07 04:03:02;;;;;;;1.20;1.10;;;;;;;18.70;94.34;98581.75;4986168;28;104876;-74
2021/07/07 04:05:30;;;;;;;1.80;1.50;;;;;;;18.78;93.83;98584.44;5003348;28;103200;-74
2021/07/07 04:07:58;;;;;;;3.10;1.90;;;;;;;18.71;93.72;98583.44;5004870;28;103122;-73
2021/07/07 04:10:26;;;;;;;3.30;2.10;;;;;;;18.33;94.79;98595.50;5002138;28;105148;-74
2021/07/07 04:12:54;;;;;;;2.60;2.40;;;;;;;17.76;97.87;98578.38;5011445;28;103926;-74
2021/07/07 04:15:24;;;;;;;1.65;1.55;;;;;;;18.11;99.46;98581.84;5007225;28;102986;-74
2021/07/07 04:17:51;;;;;;;1.87;1.50;;;;;;;18.37;96.67;98596.00;5005032;28;102882;-73
2021/07/07 04:20:20;;;;;;;1.88;1.42;;;;;;;18.37;95.11;98606.69;5004053;28;105608;-74
2021/07/07 04:22:50;;;;;;;1.38;1.10;;;;;;;18.33;95.83;98618.75;5015622;28;104037;-75
2021/07/07 04:25:18;;;;;;;1.80;1.30;;;;;;;18.52;94.42;98610.47;5004646;28;103287;-75
2021/07/07 04:27:48;;;;;;;0.88;0.88;;;;;;;18.68;93.90;98615.88;5005041;28;102704;-74
2021/07/07 04:30:19;;;;;;;1.00;1.00;;;;;;;18.75;92.36;98621.41;5002435;28;103854;-76
2021/07/07 04:32:50;;;;;;;1.40;1.30;;;;;;;18.45;93.13;98602.22;5003665;28;103596;-72
2021/07/07 04:35:18;;;;;;;2.83;2.10;;;;;;;17.43;99.44;98611.19;5001923;28;103074;-74
2021/07/07 04:37:49;;;;;;;1.60;1.20;;;;;;;17.80;99.90;98608.25;5004212;28;103870;-74
2021/07/07 04:40:19;;;;;;;1.33;1.23;;;;;;;18.26;97.59;98615.03;5003289;28;104007;-76
2021/07/07 04:42:47;;;;;;;1.33;1.23;;;;;;;18.47;95.80;98618.09;5004033;28;104103;-74
2021/07/07 04:45:16;;;;;;;2.90;1.60;;;;;;;18.44;94.66;98623.78;5004087;28;103249;-73
2021/07/07 04:47:44;;;;;;;3.45;2.05;;;;;;;17.85;94.71;98622.81;4992567;28;103673;-75
2021/07/07 04:50:17;;;;;;;2.55;1.90;;;;;;;17.28;99.25;98629.59;4988224;28;104315;-75
2021/07/07 04:52:45;;;;;;;2.22;1.60;;;;;;;17.79;98.27;98630.66;5003777;28;105454;-74
2021/07/07 04:55:15;;;;;;;1.67;1.50;;;;;;;17.94;97.26;98640.59;5009288;28;103043;-74
2021/07/07 04:57:44;;;;;;;3.03;1.67;;;;;;;17.93;95.95;98646.97;5002652;28;102815;-74
2021/07/07 05:00:15;;;;;;;1.30;1.20;;;;;;;18.28;96.14;98637.09;4999479;28;103969;-74
2021/07/07 05:02:44;;;;;;;1.00;0.90;;;;;;;18.57;95.01;98647.44;5000901;28;104789;-75
2021/07/07 05:05:13;;;;;;;2.20;1.73;;;;;;;18.39;92.75;98644.81;4993293;28;103358;-74
2021/07/07 05:07:43;;;;;;;1.30;1.20;;;;;;;18.51;94.02;98648.91;5009340;28;103328;-74
2021/07/07 05:10:13;;;;;;;1.30;1.20;;;;;;;18.62;93.49;98658.47;4995470;28;105123;-74
2021/07/07 05:12:42;;;;;;;1.60;1.20;;;;;;;18.78;93.18;98664.72;4999181;28;104232;-74
2021/07/07 05:15:12;;;;;;;1.63;1.30;;;;;;;18.84;93.11;98648.00;5002313;28;103272;-78
2021/07/07 05:17:40;;;;;;;1.23;1.13;;;;;;;19.01;92.49;98643.50;5001924;28;103284;-79
2021/07/07 05:20:10;;;;;;;1.75;1.13;;;;;;;19.11;92.58;98645.03;5006211;28;104928;-74
2021/07/07 05:22:39;;;;;;;5.70;3.08;;;;;;;18.86;91.20;98653.22;5005631;28;104911;-76
2021/07/07 05:25:10;;;;;;;2.35;1.85;;;;;;;18.34;95.09;98658.69;4996263;28;102947;-73
2021/07/07 05:27:38;;;;;;;2.88;2.45;;;;;;;18.12;94.44;98669.94;5002305;28;102532;-71
2021/07/07 05:30:09;;;;;;;1.60;1.50;;;;;;;18.52;92.80;98672.84;4993743;28;106849;-74
2021/07/07 05:32:37;;;;;;;1.70;1.50;;;;;;;18.64;91.31;98676.03;5000856;28;104643;-74
2021/07/07 05:35:06;;;;;;;2.95;1.58;;;;;;;18.56;91.17;98684.03;5001384;28;102627;-74
2021/07/07 05:37:35;;;;;;;1.70;1.60;;;;;;;18.61;91.03;98695.09;5001398;28;103107;-74
2021/07/07 05:40:04;;;;;;;1.77;1.52;;;;;;;18.61;91.47;98689.72;4980780;28;103414;-75
2021/07/07 05:42:34;;;;;;;1.88;1.70;;;;;;;18.71;93.43;98684.25;5001325;28;105006;-83
2021/07/07 05:45:02;;;;;;;1.67;1.52;;;;;;;18.83;94.41;98672.28;5001732;28;102976;-76
2021/07/07 05:47:30;;;;;;;1.30;1.20;;;;;;;19.15;93.08;98683.03;5000449;28;103627;-76
2021/07/07 05:49:58;;;;;;;2.40;1.67;;;;;;;19.03;93.57;98684.38;4996746;28;103680;-76
2021/07/07 05:52:27;;;;;;;2.40;1.80;;;;;;;18.48;94.90;98684.00;4996986;28;104227;-76
2021/07/07 05:54:56;;;;;;;1.53;1.43;;;;;;;18.55;94.29;98693.09;4969372;28;104476;-79
2021/07/07 05:57:36;;;;;;;1.88;1.10;;;;;;;18.93;92.13;98689.84;4993849;28;103822;-75
2021/07/07 06:00:10;;;;;;;3.50;1.83;;;;;;;18.63;91.21;98693.09;4993691;28;104818;-76
2021/07/07 06:02:38;;;;;;;1.50;1.40;;;;;;;18.88;90.56;98686.84;4996498;28;103910;-77
2021/07/07 06:05:08;;;;;;;2.40;1.88;;;;;;;18.91;90.88;98691.88;4992980;28;103387;-76
2021/07/07 06:07:38;;;;;;;1.70;1.60;;;;;;;18.84;91.30;98689.97;4985272;28;103721;-75
2021/07/07 06:10:07;;;;;;;1.75;1.48;;;;;;;18.66;92.53;98687.44;4976339;28;103886;-77
2021/07/07 06:12:37;;;;;;;1.40;1.30;;;;;;;19.05;92.35;98682.34;4982496;28;104524;-76
2021/07/07 06:15:09;;;;;;;2.42;2.22;;;;;;;18.57;92.42;98688.41;4996074;28;103602;-76
2021/07/07 06:17:38;;;;;;;2.33;1.63;;;;;;;19.03;90.38;98693.22;4976322;28;103691;-75
2021/07/07 06:20:10;;;;;;;2.22;1.80;;;;;;;19.34;90.44;98671.19;4973636;28;104255;-76
2021/07/07 06:22:38;;;;;;;2.20;1.70;;;;;;;19.55;90.53;98675.06;4991901;28;103714;-77
2021/07/07 06:25:09;;;;;;;2.10;1.75;;;;;;;19.52;90.65;98679.91;4996362;28;103182;-76
2021/07/07 06:27:39;;;;;;;1.73;1.60;;;;;;;19.38;92.46;98675.19;4985072;28;103998;-75
2021/07/07 06:30:11;;;;;;;2.58;1.85;;;;;;;19.39;90.84;98682.25;4992806;28;104304;-76
2021/07/07 06:32:40;;;;;;;2.28;2.00;;;;;;;18.65;90.73;98691.09;4980105;28;103900;-77
2021/07/07 06:35:08;;;;;;;1.98;1.80;;;;;;;18.75;93.69;98707.03;4997068;28;104373;-75
2021/07/07 06:37:37;;;;;;;2.57;1.70;;;;;;;19.00;91.95;98701.56;4995451;28;103542;-75
2021/07/07 06:40:05;;;;;;;2.08;1.80;;;;;;;19.10;90.08;98707.63;4995257;28;104085;-75
2021/07/07 06:42:34;;;;;;;1.50;1.35;;;;;;;19.33;90.56;98707.84;4994655;28;104731;-76
2021/07/07 06:45:06;;;;;;;2.22;1.60;;;;;;;19.52;89.88;98717.41;4997664;28;103029;-76
2021/07/07 06:47:36;;;;;;;1.40;1.23;;;;;;;19.62;88.57;98718.13;4982892;28;103216;-75
2021/07/07 06:50:05;;;;;;;2.30;2.00;;;;;;;19.45;89.36;98716.44;4985874;28;104471;-77
2021/07/07 06:52:34;;;;;;;2.28;2.03;;;;;;;18.95;91.24;98735.19;4987421;28;104701;-77
2021/07/07 06:55:03;;;;;;;1.40;1.30;;;;;;;19.29;90.56;98732.41;4988394;28;104142;-75
2021/07/07 06:57:34;;;;;;;1.20;1.10;;;;;;;19.51;89.37;98732.66;4985814;28;103428;-77
2021/07/07 07:00:05;;;;;;;1.60;1.40;;;;;;;19.62;88.57;98734.19;4990213;28;103341;-76
2021/07/07 07:02:35;;;;;;;1.50;1.40;;;;;;;19.66;88.67;98744.41;5002935;28;104710;-76
2021/07/07 07:05:07;;;;;;;1.40;1.30;;;;;;;19.68;88.60;98754.94;4987840;28;104798;-76
2021/07/07 07:07:36;;;;;;;1.48;1.38;;;;;;;19.66;88.68;98762.31;4994326;28;103418;-77
2021/07/07 07:10:04;;;;;;;1.48;1.27;;;;;;;19.75;88.65;98764.00;4986175;28;103781;-77
2021/07/07 07:12:35;;;;;;;1.40;1.30;;;;;;;19.77;89.10;98758.47;4995350;28;103670;-77
2021/07/07 07:15:06;;;;;;;1.20;1.10;;;;;;;19.87;88.70;98765.34;4999826;28;103130;-76
2021/07/07 07:17:36;;;;;;;1.63;1.30;;;;;;;19.67;88.78;98769.38;5000057;28;103340;-77
2021/07/07 07:20:05;;;;;;;1.83;1.35;;;;;;;19.74;88.68;98775.72;4996519;28;105146;-78
2021/07/07 07:22:34;;;;;;;3.30;1.40;;;;;;;19.70;87.24;98769.03;5006345;28;105642;-77
2021/07/07 07:25:02;;;;;;;1.60;1.20;;;;;;;19.48;88.44;98775.03;5003487;28;103086;-78
2021/07/07 07:27:30;;;;;;;1.52;1.25;;;;;;;19.87;87.17;98775.22;5000746;28;103107;-77
2021/07/07 07:29:58;;;;;;;1.10;1.00;;;;;;;19.95;85.97;98773.41;4987878;28;104309;-74
2021/07/07 07:32:27;;;;;;;1.05;0.95;;;;;;;20.06;86.14;98774.88;5000253;28;103860;-75
2021/07/07 07:34:56;;;;;;;1.50;1.40;;;;;;;19.93;86.03;98764.66;5000330;28;102967;-75
2021/07/07 07:37:26;;;;;;;1.73;1.40;;;;;;;20.06;84.54;98759.63;5000279;28;103176;-75
2021/07/07 07:39:55;;;;;;;1.10;0.90;;;;;;;20.35;83.12;98763.66;4980887;28;104459;-75
2021/07/07 07:42:23;;;;;;;1.10;1.00;;;;;;;20.58;82.83;98761.91;4999463;28;104707;-75
2021/07/07 07:44:52;;;;;;;1.40;1.30;;;;;;;20.47;82.73;98762.25;5000185;28;103148;-75
2021/07/07 07:47:20;;;;;;;1.30;1.20;;;;;;;20.37;82.46;98767.84;5000443;28;104969;-75
2021/07/07 07:50:12;;;;;;;1.67;1.27;;;;;;;20.13;79.67;98782.09;4989073;28;103302;-75
2021/07/07 07:52:40;;;;;;;1.90;1.30;;;;;;;19.98;84.23;98786.47;4999086;28;103336;-76
2021/07/07 07:55:10;;;;;;;1.30;1.20;;;;;;;20.34;84.05;98778.06;4977047;28;107059;-76
2021/07/07 07:57:39;;;;;;;1.83;1.30;;;;;;;20.59;82.87;98779.69;4980582;28;103144;-75
2021/07/07 08:00:10;;;;;;;2.30;1.50;;;;;;;20.62;84.77;98765.94;4997309;28;105366;-76
2021/07/07 08:02:42;;;;;;;1.70;1.40;;;;;;;20.62;84.08;98761.41;5002931;28;105575;-75
2021/07/07 08:05:13;;;;;;;2.00;1.50;;;;;;;20.73;82.95;98773.59;4977894;28;103620;-76
2021/07/07 08:07:42;;;;;;;1.90;1.70;;;;;;;20.63;84.04;98773.78;4998287;28;103963;-75
2021/07/07 08:10:14;;;;;;;1.70;1.33;;;;;;;20.99;81.72;98776.03;4991015;28;105082;-75
2021/07/07 08:12:42;;;;;;;2.40;1.48;;;;;;;20.99;79.66;98789.44;4998723;28;103505;-75
2021/07/07 08:15:11;;;;;;;2.20;1.40;;;;;;;21.02;80.56;98808.75;4998800;28;103679;-75
2021/07/07 08:17:39;;;;;;;2.20;1.50;;;;;;;20.81;83.45;98811.16;4998834;28;103211;-75
2021/07/07 08:20:10;;;;;;;1.75;1.30;;;;;;;20.88;82.76;98814.84;4996630;28;103879;-75
2021/07/07 08:22:40;;;;;;;2.72;1.70;;;;;;;20.52;83.66;98814.41;5004163;28;103709;-75
2021/07/07 08:25:11;;;;;;;4.65;1.70;;;;;;;20.24;83.01;98819.31;4998081;28;103054;-75
2021/07/07 08:27:41;;;;;;;1.88;1.40;;;;;;;20.69;81.64;98809.84;4998990;28;103091;-75
2021/07/07 08:30:11;;;;;;;3.00;1.90;;;;;;;20.14;84.12;98809.75;4986366;28;104843;-75
2021/07/07 08:32:39;;;;;;;3.10;1.85;;;;;;;20.06;83.60;98801.72;4993561;28;104240;-75
2021/07/07 08:35:09;;;;;;;2.20;1.52;;;;;;;20.24;83.76;98803.22;4986525;28;102967;-75
2021/07/07 08:37:37;;;;;;;3.03;2.10;;;;;;;19.85;85.11;98799.50;5003374;28;103310;-75
2021/07/07 08:40:09;;;;;;;1.98;1.50;;;;;;;20.03;85.29;98805.56;5002074;28;105816;-74
2021/07/07 08:42:38;;;;;;;2.97;1.80;;;;;;;20.27;82.86;98810.09;5003087;28;105594;-74
2021/07/07 08:45:08;;;;;;;3.47;1.85;;;;;;;19.84;85.91;98808.56;4988474;28;102939;-74
2021/07/07 08:47:37;;;;;;;1.98;1.77;;;;;;;20.29;82.81;98804.56;5002828;28;103144;-74
2021/07/07 08:50:07;;;;;;;2.67;1.50;;;;;;;20.35;83.19;98811.94;5001651;28;103464;-74
2021/07/07 08:52:37;;;;;;;3.88;1.90;;;;;;;20.64;81.68;98817.56;5001372;28;103149;-74
2021/07/07 08:55:10;;;;;;;3.47;1.93;;;;;;;20.41;82.35;98819.28;5001639;28;103213;-74
2021/07/07 08:57:43;;;;;;;4.10;1.70;;;;;;;20.28;84.63;98817.16;4998725;28;103335;-75
2021/07/07 09:00:15;;;;;;;3.23;2.17;;;;;;;20.11;81.69;98815.44;5002365;28;104214;-74
2021/07/07 09:02:51;;;;;;;1.85;1.55;;;;;;;20.44;81.55;98816.28;5004697;28;104869;-75
2021/07/07 09:05:21;;;;;;;2.80;1.60;;;;;;;20.81;83.24;98803.09;4987945;28;103065;-74
2021/07/07 09:07:50;;;;;;;4.30;2.30;;;;;;;21.18;83.13;98802.47;5002126;28;103442;-75
2021/07/07 09:10:28;;;;;;;3.40;1.90;;;;;;;21.37;83.14;98815.47;4998868;28;107374;-75
2021/07/07 09:12:56;;;;;;;3.40;2.40;;;;;;;21.24;81.17;98826.81;4999805;28;103670;-74
2021/07/07 09:15:24;;;;;;;3.00;2.05;;;;;;;21.28;83.40;98828.13;4998921;28;103643;-73
2021/07/07 09:17:53;;;;;;;1.83;1.63;;;;;;;21.19;82.03;98822.97;5002858;28;103100;-73
2021/07/07 09:20:25;;;;;;;4.00;2.50;;;;;;;21.02;83.11;98824.03;5007594;28;104911;-73
2021/07/07 09:23:14;;;;;;;3.45;2.53;;;;;;;21.01;83.36;98833.91;5002423;28;104988;-73
2021/07/07 09:25:52;;;;;;;4.45;2.67;;;;;;;20.43;84.05;98830.72;5000979;28;102909;-73
2021/07/07 09:28:23;;;;;;;4.80;2.58;;;;;;;20.19;86.22;98840.41;5014098;28;103241;-73
2021/07/07 09:30:52;;;;;;;3.72;2.10;;;;;;;20.64;84.38;98839.06;5003848;28;105163;-74
2021/07/07 09:33:21;;;;;;;4.10;2.22;;;;;;;20.96;81.68;98835.44;5004785;28;103317;-73
2021/07/07 09:36:14;;;;;;;4.78;2.47;;;;;;;20.92;80.37;98848.38;5002641;28;102954;-72
2021/07/07 09:38:42;;;;;;;3.75;2.60;;;;;;;21.21;80.37;98856.72;4992446;28;102911;-73
2021/07/07 09:41:13;;;;;;;6.25;3.20;;;;;;;20.70;82.19;98858.00;5002210;28;103403;-73
2021/07/07 09:43:46;;;;;;;5.10;2.90;;;;;;;20.57;82.88;98860.38;5003041;28;103741;-74
2021/07/07 09:46:14;;;;;;;6.18;2.88;;;;;;;21.00;82.51;98855.56;5002790;28;103189;-74
2021/07/07 09:48:42;;;;;;;7.78;3.13;;;;;;;20.80;83.13;98855.13;5003244;28;103341;-84
2021/07/07 09:51:10;;;;;;;5.75;2.83;;;;;;;20.47;81.78;98857.03;5002870;28;103601;-75
2021/07/07 09:53:38;;;;;;;3.70;2.27;;;;;;;21.04;80.96;98852.38;5002582;28;105103;-75
2021/07/07 09:56:06;;;;;;;3.83;2.40;;;;;;;21.08;80.91;98848.34;5003118;28;103032;-75
2021/07/07 09:58:36;;;;;;;3.17;2.25;;;;;;;21.00;82.41;98850.19;5002213;28;103009;-75
2021/07/07 10:01:05;;;;;;;3.27;2.10;;;;;;;21.16;79.14;98851.03;4983124;28;104278;-75
2021/07/07 10:03:33;;;;;;;4.32;2.20;;;;;;;21.33;78.37;98857.97;5002992;28;104652;-75
2021/07/07 10:06:02;;;;;;;5.30;2.42;;;;;;;21.35;79.68;98855.97;4980872;28;103479;-75
2021/07/07 10:08:31;;;;;;;3.40;2.15;;;;;;;21.24;78.64;98852.84;5002506;28;102727;-75
2021/07/07 10:11:01;;;;;;;2.60;1.70;;;;;;;21.51;77.51;98849.66;5001228;28;104029;-75
2021/07/07 10:13:29;;;;;;;2.00;1.50;;;;;;;22.02;75.23;98850.88;4985066;28;103847;-75
2021/07/07 10:15:59;;;;;;;3.67;2.20;;;;;;;21.96;74.31;98843.53;5003102;28;103491;-75
2021/07/07 10:18:28;;;;;;;4.03;1.85;;;;;;;21.84;76.35;98844.91;5002610;28;102987;-73
2021/07/07 10:20:56;;;;;;;2.55;1.65;;;;;;;22.26;73.29;98839.91;5003249;28;104130;-74
2021/07/07 10:23:25;;;;;;;3.38;1.90;;;;;;;22.15;74.26;98843.03;5009352;28;105073;-73
2021/07/07 10:26:00;;;;;;;5.15;1.70;;;;;;;21.76;74.16;98851.19;5001675;28;102857;-73
2021/07/07 10:28:29;;;;;;;4.87;1.70;;;;;;;22.36;72.75;98851.28;5002722;28;103147;-73
2021/07/07 10:31:00;;;;;;;3.55;1.45;;;;;;;22.38;72.43;98849.25;5002355;28;105038;-73
2021/07/07 10:33:31;;;;;;;1.75;1.20;;;;;;;22.90;71.77;98843.88;5002459;28;103768;-73
2021/07/07 10:36:30;;;;;;;2.83;1.40;;;;;;;22.61;70.34;98848.34;5005195;27;102536;-73
2021/07/07 10:39:00;;;;;;;4.15;1.90;;;;;;;21.83;72.32;98854.03;4924595;28;103266;-73
2021/07/07 10:41:52;;;;;;;5.45;1.92;;;;;;;22.26;71.59;98856.06;4987722;28;103729;-73
2021/07/07 10:44:59;;;;;;;3.67;1.50;;;;;;;22.11;71.41;98859.75;5004528;28;103226;-73
2021/07/07 10:47:38;;;;;;;3.13;1.48;;;;;;;22.30;70.39;98862.78;5005990;28;103472;-73
2021/07/07 10:50:08;;;;;;;2.70;1.60;;;;;;;22.10;71.66;98876.88;5006087;28;102712;-73
2021/07/07 10:52:41;;;;;;;2.25;1.60;;;;;;;22.68;71.68;98878.97;5004608;28;103787;-73
2021/07/07 10:55:11;;;;;;;2.38;1.60;;;;;;;22.92;70.01;98876.00;5005331;28;103174;-73
2021/07/07 10:57:40;;;;;;;2.73;1.60;;;;;;;22.77;71.56;98864.38;5005284;28;103179;-73
2021/07/07 11:00:29;;;;;;;2.63;1.77;;;;;;;22.74;69.77;98864.75;5015951;28;103579;-73
2021/07/07 11:03:20;;;;;;;2.70;1.80;;;;;;;22.83;72.53;98856.41;5005577;28;116390;-73
2021/07/07 11:05:48;;;;;;;3.42;1.63;;;;;;;23.00;68.22;98859.75;5011211;28;103752;-75
2021/07/07 11:08:20;;;;;;;3.80;2.00;;;;;;;22.16;70.30;98860.88;5014303;28;103408;-73
2021/07/07 11:10:56;;;;;;;2.78;1.58;;;;;;;22.31;71.98;98859.06;5011550;28;103730;-74
2021/07/07 11:13:24;;;;;;;3.50;2.03;;;;;;;21.35;71.95;98855.97;5003761;28;104975;-73
2021/07/07 11:15:52;;;;;;;3.90;1.93;;;;;;;21.51;72.87;98852.34;5003372;28;103741;-75
2021/07/07 11:18:25;;;;;;;3.63;2.00;;;;;;;22.28;72.88;98854.06;4999452;28;103688;-73
2021/07/07 11:21:07;;;;;;;2.27;1.63;;;;;;;22.53;71.61;98852.81;5002307;28;103117;-73
2021/07/07 11:23:39;;;;;;;3.07;1.90;;;;;;;21.76;74.45;98855.75;5001423;28;103527;-74
2021/07/07 11:26:07;;;;;;;3.75;2.20;;;;;;;22.16;74.54;98855.50;4985087;28;105302;-74
2021/07/07 11:28:36;;;;;;;3.67;1.88;;;;;;;22.33;70.75;98851.66;5003122;28;103466;-73
2021/07/07 11:31:04;;;;;;;3.30;1.80;;;;;;;22.92;69.13;98841.84;5002227;28;103221;-73
2021/07/07 11:33:34;;;;;;;2.30;1.52;;;;;;;22.87;68.32;98838.03;5002175;28;103929;-79
2021/07/07 11:36:02;;;;;;;4.03;1.70;;;;;;;23.27;71.99;98842.91;4996244;28;103625;-72